createdAt,value
2023-05-05T00:00:11.075Z,84.40
2023-05-05T00:01:11.081Z,84.30
2023-05-05T00:02:11.115Z,84.14
2023-05-05T00:03:11.165Z,83.99
2023-05-05T00:04:11.138Z,83.86
2023-05-05T00:05:11.084Z,83.90
2023-05-05T00:06:11.078Z,84.10
2023-05-05T00:07:11.079Z,83.86
2023-05-05T00:08:11.079Z,83.81
2023-05-05T00:09:11.076Z,83.78
2023-05-05T00:10:11.087Z,83.72
2023-05-05T00:11:11.087Z,83.70
2023-05-05T00:12:11.086Z,83.63
2023-05-05T00:13:11.114Z,83.60
2023-05-05T00:14:11.081Z,83.52
2023-05-05T00:15:11.079Z,83.37
2023-05-05T00:16:11.074Z,83.58
2023-05-05T00:17:11.189Z,83.55
2023-05-05T00:18:11.081Z,83.80
2023-05-05T00:19:11.083Z,83.89
2023-05-05T00:20:11.084Z,84.13
2023-05-05T00:21:11.100Z,84.21
2023-05-05T00:22:11.084Z,84.33
2023-05-05T00:23:11.087Z,84.26
2023-05-05T00:24:11.097Z,84.11
2023-05-05T00:25:11.079Z,83.88
2023-05-05T00:26:11.097Z,83.87
2023-05-05T00:27:11.078Z,83.80
2023-05-05T00:28:11.086Z,84.11
2023-05-05T00:29:11.089Z,84.07
2023-05-05T00:30:11.083Z,84.13
2023-05-05T00:31:11.172Z,84.46
2023-05-05T00:32:11.090Z,84.39
2023-05-05T00:33:11.116Z,84.45
2023-05-05T00:34:11.082Z,84.50
2023-05-05T00:35:11.113Z,84.58
2023-05-05T00:36:11.098Z,84.47
2023-05-05T00:37:11.087Z,84.25
2023-05-05T00:38:11.088Z,84.00
2023-05-05T00:39:11.086Z,84.37
2023-05-05T00:40:11.084Z,84.20
2023-05-05T00:41:11.094Z,84.56
2023-05-05T00:42:11.084Z,84.70
2023-05-05T00:43:11.086Z,84.72
2023-05-05T00:44:11.090Z,84.55
2023-05-05T00:45:11.091Z,84.57
2023-05-05T00:46:19.138Z,84.73
2023-05-05T00:47:11.099Z,84.48
2023-05-05T00:48:11.147Z,84.55
2023-05-05T00:49:11.119Z,84.77
2023-05-05T00:50:13.096Z,85.02
2023-05-05T00:51:12.087Z,84.73
2023-05-05T00:52:12.092Z,84.93
2023-05-05T00:53:12.098Z,84.85
2023-05-05T00:54:11.094Z,84.58
2023-05-05T00:55:11.086Z,84.82
2023-05-05T00:56:11.094Z,84.87
2023-05-05T00:57:11.092Z,84.86
2023-05-05T00:58:11.091Z,84.87
2023-05-05T00:59:11.094Z,84.80
2023-05-05T01:00:11.103Z,84.86
2023-05-05T01:01:11.188Z,85.03
2023-05-05T01:02:11.083Z,85.11
2023-05-05T01:03:11.095Z,85.75
2023-05-05T01:04:11.080Z,85.77
2023-05-05T01:05:11.072Z,85.77
2023-05-05T01:06:20.066Z,85.62
2023-05-05T01:07:23.068Z,85.46
2023-05-05T01:08:19.068Z,85.36
2023-05-05T01:09:19.068Z,85.33
2023-05-05T01:10:21.232Z,85.00
2023-05-05T01:11:19.069Z,84.83
2023-05-05T01:12:18.071Z,84.74
2023-05-05T01:13:21.073Z,84.74
2023-05-05T01:14:17.073Z,84.71
2023-05-05T01:15:21.062Z,84.56
2023-05-05T01:16:19.083Z,84.51
2023-05-05T01:17:18.072Z,84.60
2023-05-05T01:18:17.071Z,84.69
2023-05-05T01:19:19.070Z,84.80
2023-05-05T01:20:20.070Z,84.91
2023-05-05T01:21:21.071Z,85.07
2023-05-05T01:22:12.070Z,85.11
2023-05-05T01:23:15.072Z,85.33
2023-05-05T01:24:19.067Z,85.36
2023-05-05T01:25:19.063Z,85.39
2023-05-05T01:26:21.068Z,85.25
2023-05-05T01:27:19.073Z,85.33
2023-05-05T01:28:19.067Z,85.52
2023-05-05T01:29:19.065Z,85.54
2023-05-05T01:30:19.070Z,85.68
2023-05-05T01:31:19.081Z,85.68
2023-05-05T01:32:12.074Z,85.63
2023-05-05T01:33:14.066Z,85.65
2023-05-05T01:34:11.094Z,85.72
2023-05-05T01:35:20.077Z,85.74
2023-05-05T01:36:14.068Z,85.75
2023-05-05T01:37:14.067Z,85.78
2023-05-05T01:38:16.096Z,85.72
2023-05-05T01:39:14.068Z,85.79
2023-05-05T01:40:12.065Z,85.94
2023-05-05T01:41:16.084Z,86.04
2023-05-05T01:42:11.066Z,85.83
2023-05-05T01:43:12.064Z,85.70
2023-05-05T01:44:11.067Z,85.60
2023-05-05T01:45:12.075Z,86.05
2023-05-05T01:46:11.121Z,86.01
2023-05-05T01:47:11.075Z,86.26
2023-05-05T01:48:11.080Z,86.46
2023-05-05T01:49:11.083Z,86.24
2023-05-05T01:50:11.076Z,86.23
2023-05-05T01:51:11.072Z,86.26
2023-05-05T01:52:11.078Z,86.23
2023-05-05T01:53:11.066Z,86.19
2023-05-05T01:54:11.073Z,85.91
2023-05-05T01:55:11.061Z,85.98
2023-05-05T01:56:11.067Z,85.80
2023-05-05T01:57:11.078Z,86.04
2023-05-05T01:58:11.072Z,86.16
2023-05-05T01:59:11.077Z,86.21
2023-05-05T02:00:11.221Z,86.39
2023-05-05T02:01:11.102Z,86.43
2023-05-05T02:02:11.224Z,86.31
2023-05-05T02:03:12.163Z,86.14
2023-05-05T02:04:11.071Z,86.12
2023-05-05T02:05:11.068Z,86.06
2023-05-05T02:06:11.075Z,86.24
2023-05-05T02:07:12.065Z,86.25
2023-05-05T02:08:11.073Z,86.52
2023-05-05T02:09:12.085Z,86.58
2023-05-05T02:10:12.066Z,86.64
2023-05-05T02:11:11.071Z,86.54
2023-05-05T02:12:11.072Z,86.30
2023-05-05T02:13:12.221Z,86.47
2023-05-05T02:14:11.070Z,86.38
2023-05-05T02:15:11.074Z,86.38
2023-05-05T02:16:11.092Z,86.29
2023-05-05T02:17:11.082Z,86.50
2023-05-05T02:18:11.078Z,86.75
2023-05-05T02:19:11.073Z,86.82
2023-05-05T02:20:13.079Z,86.68
2023-05-05T02:21:11.074Z,86.33
2023-05-05T02:22:11.076Z,86.40
2023-05-05T02:23:11.072Z,86.47
2023-05-05T02:24:11.079Z,86.26
2023-05-05T02:25:11.073Z,86.27
2023-05-05T02:26:11.077Z,86.50
2023-05-05T02:27:11.086Z,86.15
2023-05-05T02:28:17.072Z,86.03
2023-05-05T02:29:17.080Z,85.89
2023-05-05T02:30:13.079Z,85.91
2023-05-05T02:31:11.114Z,85.86
2023-05-05T02:32:18.077Z,86.00
2023-05-05T02:33:12.097Z,85.86
2023-05-05T02:34:11.077Z,85.61
2023-05-05T02:35:16.175Z,85.53
2023-05-05T02:36:19.082Z,85.37
2023-05-05T02:37:12.080Z,85.35
2023-05-05T02:38:14.078Z,85.37
2023-05-05T02:39:19.087Z,85.15
2023-05-05T02:40:11.187Z,85.19
2023-05-05T02:41:15.075Z,85.11
2023-05-05T02:42:12.098Z,85.24
2023-05-05T02:43:15.199Z,85.42
2023-05-05T02:44:12.078Z,85.42
2023-05-05T02:45:17.101Z,85.42
2023-05-05T02:46:11.131Z,85.47
2023-05-05T02:47:11.078Z,85.31
2023-05-05T02:48:11.084Z,85.21
2023-05-05T02:49:11.075Z,85.08
2023-05-05T02:50:11.263Z,85.01
2023-05-05T02:51:11.077Z,85.05
2023-05-05T02:52:11.087Z,84.94
2023-05-05T02:53:11.078Z,85.04
2023-05-05T02:54:11.082Z,85.06
2023-05-05T02:55:11.077Z,85.25
2023-05-05T02:56:19.084Z,85.05
2023-05-05T02:57:11.078Z,84.97
2023-05-05T02:58:19.080Z,84.84
2023-05-05T02:59:19.096Z,84.88
2023-05-05T03:00:21.090Z,84.79
2023-05-05T03:01:19.099Z,84.85
2023-05-05T03:02:19.099Z,84.71
2023-05-05T03:03:21.127Z,84.70
2023-05-05T03:04:18.082Z,84.75
2023-05-05T03:05:19.085Z,84.94
2023-05-05T03:06:16.093Z,84.98
2023-05-05T03:07:19.084Z,84.90
2023-05-05T03:08:15.115Z,84.98
2023-05-05T03:09:19.078Z,84.63
2023-05-05T03:10:11.109Z,84.41
2023-05-05T03:11:15.095Z,84.26
2023-05-05T03:12:12.086Z,84.30
2023-05-05T03:13:11.136Z,84.33
2023-05-05T03:14:15.126Z,84.74
2023-05-05T03:15:11.085Z,84.90
2023-05-05T03:16:11.085Z,84.82
2023-05-05T03:17:12.084Z,84.96
2023-05-05T03:18:11.083Z,85.12
2023-05-05T03:19:11.082Z,85.17
2023-05-05T03:20:11.081Z,85.13
2023-05-05T03:21:12.086Z,85.07
2023-05-05T03:22:11.075Z,85.20
2023-05-05T03:23:11.087Z,85.35
2023-05-05T03:24:15.081Z,85.23
2023-05-05T03:25:11.079Z,85.34
2023-05-05T03:26:11.080Z,85.09
2023-05-05T03:27:11.128Z,85.51
2023-05-05T03:28:11.081Z,85.51
2023-05-05T03:29:11.079Z,85.64
2023-05-05T03:30:11.078Z,85.49
2023-05-05T03:31:11.077Z,85.45
2023-05-05T03:32:11.127Z,85.41
2023-05-05T03:33:11.081Z,85.63
2023-05-05T03:34:11.080Z,85.63
2023-05-05T03:35:11.082Z,85.42
2023-05-05T03:36:11.081Z,85.26
2023-05-05T03:37:11.089Z,85.10
2023-05-05T03:38:11.089Z,84.94
2023-05-05T03:39:11.081Z,85.23
2023-05-05T03:40:11.080Z,85.86
2023-05-05T03:41:11.086Z,85.57
2023-05-05T03:42:11.092Z,85.14
2023-05-05T03:43:11.088Z,84.98
2023-05-05T03:44:11.088Z,85.06
2023-05-05T03:45:11.082Z,84.96
2023-05-05T03:46:11.105Z,84.88
2023-05-05T03:47:11.085Z,84.91
2023-05-05T03:48:11.099Z,84.88
2023-05-05T03:49:11.087Z,85.07
2023-05-05T03:50:11.081Z,84.97
2023-05-05T03:51:11.084Z,84.94
2023-05-05T03:52:12.623Z,84.92
2023-05-05T03:53:11.085Z,84.83
2023-05-05T03:54:11.092Z,84.67
2023-05-05T03:55:11.098Z,84.62
2023-05-05T03:56:11.088Z,84.47
2023-05-05T03:57:11.105Z,84.66
2023-05-05T03:58:11.128Z,84.52
2023-05-05T03:59:11.090Z,84.59
2023-05-05T04:00:11.090Z,84.70
2023-05-05T04:01:11.062Z,84.87
2023-05-05T04:02:11.064Z,84.77
2023-05-05T04:03:11.303Z,84.85
2023-05-05T04:04:11.102Z,85.11
2023-05-05T04:05:11.071Z,85.04
2023-05-05T04:06:11.068Z,84.85
2023-05-05T04:07:11.063Z,84.76
2023-05-05T04:08:11.065Z,84.68
2023-05-05T04:09:11.070Z,84.63
2023-05-05T04:10:11.061Z,84.46
2023-05-05T04:11:11.071Z,84.54
2023-05-05T04:12:13.065Z,84.42
2023-05-05T04:13:11.245Z,84.51
2023-05-05T04:14:11.071Z,84.53
2023-05-05T04:15:11.067Z,84.72
2023-05-05T04:16:11.106Z,84.82
2023-05-05T04:17:12.066Z,84.93
2023-05-05T04:18:11.106Z,84.72
2023-05-05T04:19:11.065Z,84.73
2023-05-05T04:20:11.221Z,85.15
2023-05-05T04:21:11.066Z,84.94
2023-05-05T04:22:11.066Z,84.98
2023-05-05T04:23:11.067Z,85.12
2023-05-05T04:24:11.071Z,85.33
2023-05-05T04:25:11.064Z,85.74
2023-05-05T04:26:11.068Z,85.66
2023-05-05T04:27:11.068Z,85.92
2023-05-05T04:28:11.072Z,85.71
2023-05-05T04:29:11.065Z,85.58
2023-05-05T04:30:11.071Z,85.75
2023-05-05T04:31:11.099Z,85.73
2023-05-05T04:32:11.070Z,85.70
2023-05-05T04:33:11.069Z,85.73
2023-05-05T04:34:11.070Z,85.80
2023-05-05T04:35:11.087Z,85.85
2023-05-05T04:36:11.071Z,85.72
2023-05-05T04:37:11.078Z,85.78
2023-05-05T04:38:11.076Z,85.74
2023-05-05T04:39:12.068Z,85.81
2023-05-05T04:40:11.069Z,85.82
2023-05-05T04:41:12.080Z,85.70
2023-05-05T04:42:11.066Z,85.61
2023-05-05T04:43:11.090Z,85.48
2023-05-05T04:44:11.083Z,85.46
2023-05-05T04:45:11.086Z,85.72
2023-05-05T04:46:11.096Z,85.56
2023-05-05T04:47:13.264Z,85.45
2023-05-05T04:48:11.069Z,85.57
2023-05-05T04:49:11.067Z,85.58
2023-05-05T04:50:11.191Z,85.99
2023-05-05T04:51:11.076Z,85.88
2023-05-05T04:52:11.066Z,85.54
2023-05-05T04:53:11.074Z,85.50
2023-05-05T04:54:11.076Z,85.38
2023-05-05T04:55:11.070Z,85.76
2023-05-05T04:56:11.071Z,85.71
2023-05-05T04:57:11.074Z,85.57
2023-05-05T04:58:11.074Z,85.82
2023-05-05T04:59:11.071Z,85.81
2023-05-05T05:00:11.235Z,85.85
2023-05-05T05:01:11.070Z,85.75
2023-05-05T05:02:11.084Z,85.63
2023-05-05T05:03:11.127Z,85.49
2023-05-05T05:04:11.104Z,85.81
2023-05-05T05:05:11.078Z,85.70
2023-05-05T05:06:11.075Z,85.69
2023-05-05T05:07:11.073Z,85.80
2023-05-05T05:08:11.074Z,85.81
2023-05-05T05:09:11.073Z,85.83
2023-05-05T05:10:11.249Z,85.54
2023-05-05T05:11:11.072Z,85.45
2023-05-05T05:12:11.080Z,85.41
2023-05-05T05:13:12.783Z,85.09
2023-05-05T05:14:11.080Z,85.13
2023-05-05T05:15:11.086Z,85.13
2023-05-05T05:16:11.107Z,85.07
2023-05-05T05:17:11.097Z,84.89
2023-05-05T05:18:11.087Z,84.61
2023-05-05T05:19:11.082Z,84.69
2023-05-05T05:20:11.424Z,84.66
2023-05-05T05:21:11.080Z,84.69
2023-05-05T05:22:11.075Z,84.38
2023-05-05T05:23:11.075Z,84.20
2023-05-05T05:24:11.086Z,84.13
2023-05-05T05:25:11.087Z,84.15
2023-05-05T05:26:11.073Z,84.28
2023-05-05T05:27:13.085Z,84.39
2023-05-05T05:28:11.219Z,84.57
2023-05-05T05:29:11.073Z,84.30
2023-05-05T05:30:11.087Z,84.08
2023-05-05T05:31:11.076Z,84.06
2023-05-05T05:32:11.127Z,83.98
2023-05-05T05:33:11.192Z,83.98
2023-05-05T05:34:12.711Z,84.05
2023-05-05T05:35:11.074Z,84.03
2023-05-05T05:36:11.082Z,83.87
2023-05-05T05:37:11.076Z,83.66
2023-05-05T05:38:11.075Z,83.74
2023-05-05T05:39:11.074Z,83.68
2023-05-05T05:40:11.080Z,83.58
2023-05-05T05:41:11.068Z,83.54
2023-05-05T05:42:11.084Z,83.58
2023-05-05T05:43:11.107Z,83.59
2023-05-05T05:44:11.071Z,83.49
2023-05-05T05:45:11.073Z,83.92
2023-05-05T05:46:11.102Z,83.93
2023-05-05T05:47:11.080Z,84.09
2023-05-05T05:48:11.119Z,83.84
2023-05-05T05:49:11.083Z,83.61
2023-05-05T05:50:11.263Z,83.44
2023-05-05T05:51:11.074Z,83.62
2023-05-05T05:52:11.084Z,83.88
2023-05-05T05:53:11.077Z,83.92
2023-05-05T05:54:11.074Z,83.86
2023-05-05T05:55:11.075Z,83.88
2023-05-05T05:56:11.078Z,84.04
2023-05-05T05:57:11.078Z,84.09
2023-05-05T05:58:11.076Z,84.01
2023-05-05T05:59:12.076Z,84.07
2023-05-05T06:00:11.197Z,84.08
2023-05-05T06:01:11.080Z,84.33
2023-05-05T06:02:11.114Z,84.17
2023-05-05T06:03:11.325Z,84.10
2023-05-05T06:04:11.093Z,83.75
2023-05-05T06:05:11.075Z,83.95
2023-05-05T06:06:11.080Z,83.86
2023-05-05T06:07:11.075Z,83.88
2023-05-05T06:08:11.077Z,83.55
2023-05-05T06:09:11.077Z,83.53
2023-05-05T06:10:22.787Z,83.65
2023-05-05T06:11:13.806Z,83.35
2023-05-05T06:12:11.080Z,83.48
2023-05-05T06:13:11.223Z,83.62
2023-05-05T06:14:11.077Z,83.60
2023-05-05T06:15:11.083Z,83.70
2023-05-05T06:16:11.141Z,83.58
2023-05-05T06:17:11.078Z,83.71
2023-05-05T06:18:11.109Z,83.46
2023-05-05T06:19:14.084Z,83.31
2023-05-05T06:20:11.075Z,83.23
2023-05-05T06:21:11.075Z,83.21
2023-05-05T06:22:11.081Z,82.99
2023-05-05T06:23:11.081Z,82.98
2023-05-05T06:24:11.081Z,82.76
2023-05-05T06:25:11.086Z,82.59
2023-05-05T06:26:11.077Z,82.49
2023-05-05T06:27:11.076Z,82.45
2023-05-05T06:28:11.075Z,82.45
2023-05-05T06:29:12.330Z,82.58
2023-05-05T06:30:11.134Z,82.52
2023-05-05T06:31:11.104Z,82.68
2023-05-05T06:32:12.081Z,82.56
2023-05-05T06:33:11.076Z,82.69
2023-05-05T06:34:11.080Z,82.73
2023-05-05T06:35:11.084Z,82.85
2023-05-05T06:36:11.120Z,82.63
2023-05-05T06:37:11.104Z,82.45
2023-05-05T06:38:11.091Z,82.29
2023-05-05T06:39:11.084Z,82.22
2023-05-05T06:40:11.252Z,82.00
2023-05-05T06:41:11.080Z,82.10
2023-05-05T06:42:11.082Z,81.96
2023-05-05T06:43:11.088Z,81.73
2023-05-05T06:44:11.086Z,81.64
2023-05-05T06:45:11.082Z,81.85
2023-05-05T06:46:11.082Z,81.59
2023-05-05T06:47:11.097Z,81.28
2023-05-05T06:48:11.087Z,81.50
2023-05-05T06:49:11.085Z,81.37
2023-05-05T06:50:11.303Z,81.44
2023-05-05T06:51:11.091Z,81.38
2023-05-05T06:52:12.109Z,81.52
2023-05-05T06:53:11.091Z,81.43
2023-05-05T06:54:11.083Z,81.16
2023-05-05T06:55:11.089Z,81.45
2023-05-05T06:56:11.088Z,81.28
2023-05-05T06:57:11.084Z,81.08
2023-05-05T06:58:11.085Z,81.07
2023-05-05T06:59:11.088Z,80.99
2023-05-05T07:00:11.126Z,80.78
2023-05-05T07:01:11.112Z,81.05
2023-05-05T07:02:11.063Z,80.93
2023-05-05T07:03:11.157Z,80.64
2023-05-05T07:04:11.181Z,80.48
2023-05-05T07:05:11.089Z,80.27
2023-05-05T07:06:11.067Z,79.91
2023-05-05T07:07:11.067Z,79.72
2023-05-05T07:08:11.097Z,79.24
2023-05-05T07:09:11.063Z,79.21
2023-05-05T07:10:11.091Z,78.88
2023-05-05T07:11:11.086Z,78.89
2023-05-05T07:12:11.073Z,78.64
2023-05-05T07:13:11.206Z,78.39
2023-05-05T07:14:11.078Z,78.29
2023-05-05T07:15:23.299Z,78.28
2023-05-05T07:16:13.849Z,78.94
2023-05-05T07:17:11.106Z,78.61
2023-05-05T07:18:11.152Z,78.37
2023-05-05T07:19:11.066Z,78.40
2023-05-05T07:20:11.140Z,78.23
2023-05-05T07:21:11.065Z,78.08
2023-05-05T07:22:11.072Z,78.36
2023-05-05T07:23:11.072Z,78.30
2023-05-05T07:24:11.069Z,77.87
2023-05-05T07:25:11.075Z,77.77
2023-05-05T07:26:11.076Z,77.58
2023-05-05T07:27:11.069Z,77.58
2023-05-05T07:28:11.071Z,77.39
2023-05-05T07:29:11.068Z,77.35
2023-05-05T07:30:14.064Z,77.54
2023-05-05T07:31:13.037Z,77.71
2023-05-05T07:32:11.122Z,77.78
2023-05-05T07:33:11.122Z,77.69
2023-05-05T07:34:11.068Z,77.76
2023-05-05T07:35:11.071Z,77.71
2023-05-05T07:36:11.088Z,77.54
2023-05-05T07:37:11.068Z,77.44
2023-05-05T07:38:11.119Z,77.54
2023-05-05T07:39:11.082Z,77.00
2023-05-05T07:40:11.351Z,77.07
2023-05-05T07:41:11.077Z,76.62
2023-05-05T07:42:11.084Z,76.73
2023-05-05T07:43:11.071Z,76.54
2023-05-05T07:44:11.072Z,76.50
2023-05-05T07:45:11.084Z,76.54
2023-05-05T07:46:11.159Z,76.38
2023-05-05T07:47:11.075Z,76.44
2023-05-05T07:48:11.086Z,76.37
2023-05-05T07:49:11.068Z,75.97
2023-05-05T07:50:11.440Z,75.74
2023-05-05T07:51:11.079Z,75.12
2023-05-05T07:52:11.068Z,74.98
2023-05-05T07:53:14.905Z,74.78
2023-05-05T07:54:11.081Z,74.55
2023-05-05T07:55:11.074Z,74.54
2023-05-05T07:56:11.078Z,74.06
2023-05-05T07:57:11.076Z,74.19
2023-05-05T07:58:11.150Z,74.02
2023-05-05T07:59:11.078Z,73.78
2023-05-05T08:00:11.425Z,73.45
2023-05-05T08:01:11.141Z,73.12
2023-05-05T08:02:11.105Z,73.25
2023-05-05T08:03:12.165Z,73.21
2023-05-05T08:04:11.166Z,72.88
2023-05-05T08:05:11.230Z,72.87
2023-05-05T08:06:11.086Z,72.48
2023-05-05T08:07:11.071Z,71.95
2023-05-05T08:08:11.072Z,71.83
2023-05-05T08:09:11.078Z,71.80
2023-05-05T08:10:13.092Z,71.66
2023-05-05T08:11:11.077Z,71.56
2023-05-05T08:12:11.073Z,71.22
2023-05-05T08:13:11.104Z,70.96
2023-05-05T08:14:11.072Z,70.93
2023-05-05T08:15:11.312Z,70.15
2023-05-05T08:16:11.108Z,70.24
2023-05-05T08:17:11.084Z,69.91
2023-05-05T08:18:11.077Z,69.92
2023-05-05T08:19:25.074Z,69.69
2023-05-05T08:20:13.846Z,69.61
2023-05-05T08:21:11.085Z,69.23
2023-05-05T08:22:11.078Z,69.69
2023-05-05T08:23:11.079Z,69.90
2023-05-05T08:24:11.084Z,69.87
2023-05-05T08:25:11.091Z,69.99
2023-05-05T08:26:11.077Z,70.04
2023-05-05T08:27:11.079Z,70.00
2023-05-05T08:28:11.076Z,69.93
2023-05-05T08:29:11.074Z,70.12
2023-05-05T08:30:11.079Z,70.51
2023-05-05T08:31:11.108Z,70.37
2023-05-05T08:32:11.094Z,69.90
2023-05-05T08:33:11.109Z,68.82
2023-05-05T08:34:11.086Z,68.55
2023-05-05T08:35:11.816Z,68.49
2023-05-05T08:36:11.085Z,68.21
2023-05-05T08:37:11.096Z,68.19
2023-05-05T08:38:11.093Z,68.31
2023-05-05T08:39:11.078Z,68.06
2023-05-05T08:40:12.112Z,67.94
2023-05-05T08:41:12.124Z,67.14
2023-05-05T08:42:11.187Z,67.56
2023-05-05T08:43:11.185Z,67.15
2023-05-05T08:44:11.299Z,66.81
2023-05-05T08:45:11.512Z,66.86
2023-05-05T08:46:12.149Z,66.85
2023-05-05T08:47:12.122Z,66.95
2023-05-05T08:48:11.160Z,66.78
2023-05-05T08:49:15.196Z,66.71
2023-05-05T08:50:11.112Z,66.79
2023-05-05T08:51:13.123Z,66.13
2023-05-05T08:52:11.121Z,65.81
2023-05-05T08:53:17.245Z,65.80
2023-05-05T08:54:16.077Z,66.02
2023-05-05T08:55:14.087Z,65.92
2023-05-05T08:56:12.183Z,65.79
2023-05-05T08:57:11.080Z,65.45
2023-05-05T08:58:11.087Z,65.11
2023-05-05T08:59:11.090Z,65.51
2023-05-05T09:00:11.090Z,65.91
2023-05-05T09:01:11.202Z,66.07
2023-05-05T09:02:11.126Z,65.94
2023-05-05T09:03:11.226Z,65.79
2023-05-05T09:04:11.122Z,66.31
2023-05-05T09:05:11.282Z,66.50
2023-05-05T09:06:11.093Z,66.93
2023-05-05T09:07:11.117Z,66.94
2023-05-05T09:08:13.092Z,67.04
2023-05-05T09:09:11.109Z,67.37
2023-05-05T09:10:11.102Z,67.32
2023-05-05T09:11:11.080Z,67.20
2023-05-05T09:12:11.097Z,67.17
2023-05-05T09:13:11.118Z,67.22
2023-05-05T09:14:11.089Z,67.43
2023-05-05T09:15:11.098Z,67.46
2023-05-05T09:16:11.113Z,67.34
2023-05-05T09:17:19.091Z,67.54
2023-05-05T09:18:11.155Z,67.46
2023-05-05T09:19:11.086Z,67.36
2023-05-05T09:20:13.104Z,67.61
2023-05-05T09:21:19.088Z,67.97
2023-05-05T09:22:11.095Z,68.19
2023-05-05T09:23:15.082Z,68.07
2023-05-05T09:24:13.101Z,68.08
2023-05-05T09:25:14.096Z,67.80
2023-05-05T09:26:12.108Z,67.56
2023-05-05T09:27:19.089Z,67.00
2023-05-05T09:28:16.104Z,66.43
2023-05-05T09:29:15.086Z,66.34
2023-05-05T09:30:11.115Z,65.66
2023-05-05T09:31:15.161Z,65.76
2023-05-05T09:32:12.097Z,64.74
2023-05-05T09:33:11.149Z,63.78
2023-05-05T09:34:15.100Z,63.28
2023-05-05T09:35:11.091Z,63.37
2023-05-05T09:36:11.090Z,63.50
2023-05-05T09:37:11.099Z,63.14
2023-05-05T09:38:13.087Z,63.68
2023-05-05T09:39:11.111Z,63.50
2023-05-05T09:40:11.086Z,63.17
2023-05-05T09:41:11.092Z,63.01
2023-05-05T09:42:19.089Z,63.30
2023-05-05T09:43:11.314Z,63.52
2023-05-05T09:44:12.114Z,63.66
2023-05-05T09:45:19.094Z,63.10
2023-05-05T09:46:11.152Z,63.28
2023-05-05T09:47:22.112Z,63.24
2023-05-05T09:48:22.414Z,63.63
2023-05-05T09:49:13.092Z,63.52
2023-05-05T09:50:11.101Z,63.46
2023-05-05T09:51:11.088Z,63.75
2023-05-05T09:52:15.101Z,63.34
2023-05-05T09:53:11.096Z,63.44
2023-05-05T09:54:15.100Z,63.94
2023-05-05T09:55:17.085Z,63.72
2023-05-05T09:56:11.096Z,63.82
2023-05-05T09:57:15.090Z,64.04
2023-05-05T09:58:21.223Z,64.23
2023-05-05T09:59:11.093Z,64.36
2023-05-05T10:00:11.338Z,64.14
2023-05-05T10:01:19.083Z,63.83
2023-05-05T10:02:13.075Z,63.77
2023-05-05T10:03:11.083Z,63.30
2023-05-05T10:04:17.081Z,62.62
2023-05-05T10:05:15.126Z,61.72
2023-05-05T10:06:11.067Z,61.66
2023-05-05T10:07:15.089Z,61.26
2023-05-05T10:08:13.078Z,61.07
2023-05-05T10:09:11.068Z,60.99
2023-05-05T10:10:13.087Z,60.54
2023-05-05T10:11:11.079Z,59.56
2023-05-05T10:12:11.083Z,60.21
2023-05-05T10:13:11.135Z,60.20
2023-05-05T10:14:12.060Z,60.07
2023-05-05T10:15:11.058Z,59.84
2023-05-05T10:16:12.095Z,59.67
2023-05-05T10:17:11.063Z,59.50
2023-05-05T10:18:11.122Z,59.59
2023-05-05T10:19:11.060Z,59.01
2023-05-05T10:20:12.065Z,58.64
2023-05-05T10:21:12.066Z,58.93
2023-05-05T10:22:12.060Z,58.57
2023-05-05T10:23:14.073Z,58.51
2023-05-05T10:24:20.060Z,58.28
2023-05-05T10:25:13.065Z,57.89
2023-05-05T10:26:11.082Z,58.01
2023-05-05T10:27:17.072Z,58.55
2023-05-05T10:28:13.061Z,58.00
2023-05-05T10:29:16.069Z,58.34
2023-05-05T10:30:16.082Z,58.33
2023-05-05T10:31:25.765Z,58.58
2023-05-05T10:32:47.206Z,57.91
2023-05-05T10:33:31.538Z,58.14
2023-05-05T10:34:19.070Z,58.06
2023-05-05T10:35:11.074Z,58.53
2023-05-05T10:36:11.071Z,58.64
2023-05-05T10:37:11.071Z,58.96
2023-05-05T10:38:11.077Z,58.98
2023-05-05T10:39:14.072Z,59.18
2023-05-05T10:40:11.249Z,58.90
2023-05-05T10:41:11.075Z,58.62
2023-05-05T10:42:11.109Z,58.85
2023-05-05T10:43:11.071Z,59.07
2023-05-05T10:44:11.116Z,59.20
2023-05-05T10:45:11.091Z,59.32
2023-05-05T10:46:11.098Z,59.30
2023-05-05T10:47:11.083Z,59.46
2023-05-05T10:48:14.129Z,59.12
2023-05-05T10:49:19.078Z,58.69
2023-05-05T10:50:19.074Z,58.83
2023-05-05T10:51:30.963Z,59.08
2023-05-05T10:52:21.386Z,59.35
2023-05-05T10:53:21.095Z,59.44
2023-05-05T10:54:21.190Z,59.11
2023-05-05T10:55:17.076Z,59.33
2023-05-05T10:56:21.086Z,59.61
2023-05-05T10:57:12.079Z,58.68
2023-05-05T10:58:15.076Z,58.81
2023-05-05T10:59:19.078Z,57.92
2023-05-05T11:00:11.420Z,57.91
2023-05-05T11:01:11.106Z,57.79
2023-05-05T11:02:19.086Z,57.68
2023-05-05T11:03:20.196Z,57.08
2023-05-05T11:04:19.083Z,56.89
2023-05-05T11:05:15.227Z,56.74
2023-05-05T11:06:12.081Z,56.73
2023-05-05T11:07:19.079Z,56.81
2023-05-05T11:08:19.091Z,57.46
2023-05-05T11:09:19.093Z,56.86
2023-05-05T11:10:11.414Z,56.39
2023-05-05T11:11:11.077Z,56.21
2023-05-05T11:12:11.084Z,56.17
2023-05-05T11:13:17.169Z,55.99
2023-05-05T11:14:19.076Z,56.76
2023-05-05T11:15:19.085Z,56.72
2023-05-05T11:16:19.133Z,57.31
2023-05-05T11:17:19.080Z,56.72
2023-05-05T11:18:19.088Z,57.78
2023-05-05T11:19:19.081Z,57.62
2023-05-05T11:20:11.093Z,57.82
2023-05-05T11:21:16.074Z,58.00
2023-05-05T11:22:11.085Z,58.06
2023-05-05T11:23:19.088Z,57.63
2023-05-05T11:24:19.095Z,57.76
2023-05-05T11:25:19.078Z,57.62
2023-05-05T11:26:11.089Z,57.92
2023-05-05T11:27:11.078Z,57.56
2023-05-05T11:28:15.090Z,57.12
2023-05-05T11:29:11.081Z,57.17
2023-05-05T11:30:11.275Z,56.84
2023-05-05T11:31:17.127Z,56.39
2023-05-05T11:32:13.095Z,56.60
2023-05-05T11:33:19.083Z,56.58
2023-05-05T11:34:21.092Z,56.68
2023-05-05T11:35:11.093Z,56.87
2023-05-05T11:36:15.085Z,56.90
2023-05-05T11:37:11.087Z,57.15
2023-05-05T11:38:11.089Z,56.98
2023-05-05T11:39:23.157Z,57.62
2023-05-05T11:40:21.076Z,57.55
2023-05-05T11:41:17.086Z,57.62
2023-05-05T11:42:21.089Z,57.83
2023-05-05T11:43:11.089Z,58.51
2023-05-05T11:44:19.079Z,59.08
2023-05-05T11:45:19.086Z,58.92
2023-05-05T11:46:15.133Z,59.39
2023-05-05T11:47:19.089Z,60.36
2023-05-05T11:48:19.081Z,60.37
2023-05-05T11:49:11.087Z,60.63
2023-05-05T11:50:17.104Z,60.47
2023-05-05T11:51:12.099Z,60.39
2023-05-05T11:52:14.086Z,60.66
2023-05-05T11:53:11.080Z,61.10
2023-05-05T11:54:11.089Z,61.25
2023-05-05T11:55:11.085Z,62.00
2023-05-05T11:56:13.094Z,62.71
2023-05-05T11:57:11.093Z,62.66
2023-05-05T11:58:19.079Z,63.24
2023-05-05T11:59:11.086Z,63.18
2023-05-05T12:00:11.308Z,63.48
2023-05-05T12:01:11.085Z,64.06
2023-05-05T12:02:11.088Z,62.81
2023-05-05T12:03:11.136Z,62.60
2023-05-05T12:04:13.256Z,61.94
2023-05-05T12:05:11.100Z,61.51
2023-05-05T12:06:11.082Z,60.97
2023-05-05T12:07:17.084Z,61.20
2023-05-05T12:08:11.087Z,61.57
2023-05-05T12:09:15.105Z,61.44
2023-05-05T12:10:11.146Z,61.12
2023-05-05T12:11:11.087Z,61.66
2023-05-05T12:12:11.088Z,61.92
2023-05-05T12:13:19.287Z,61.88
2023-05-05T12:14:11.083Z,62.59
2023-05-05T12:15:11.090Z,63.12
2023-05-05T12:16:13.180Z,63.12
2023-05-05T12:17:11.088Z,63.45
2023-05-05T12:18:19.101Z,64.13
2023-05-05T12:19:11.087Z,64.47
2023-05-05T12:20:11.388Z,64.51
2023-05-05T12:21:20.090Z,64.61
2023-05-05T12:22:11.097Z,64.73
2023-05-05T12:23:11.094Z,64.76
2023-05-05T12:24:14.086Z,64.54
2023-05-05T12:25:11.092Z,64.55
2023-05-05T12:26:15.095Z,63.56
2023-05-05T12:27:11.113Z,63.89
2023-05-05T12:28:11.096Z,63.86
2023-05-05T12:29:11.116Z,63.74
2023-05-05T12:30:16.121Z,63.34
2023-05-05T12:31:11.207Z,62.53
2023-05-05T12:32:19.111Z,62.91
2023-05-05T12:33:11.093Z,61.90
2023-05-05T12:34:11.152Z,62.07
2023-05-05T12:35:11.092Z,61.82
2023-05-05T12:36:11.099Z,61.68
2023-05-05T12:37:11.098Z,62.42
2023-05-05T12:38:11.097Z,61.36
2023-05-05T12:39:11.096Z,60.70
2023-05-05T12:40:19.096Z,61.46
2023-05-05T12:41:11.089Z,60.25
2023-05-05T12:42:11.123Z,59.37
2023-05-05T12:43:15.097Z,59.01
2023-05-05T12:44:11.131Z,58.74
2023-05-05T12:45:16.095Z,58.74
2023-05-05T12:46:11.270Z,58.54
2023-05-05T12:47:13.115Z,57.84
2023-05-05T12:48:19.095Z,58.22
2023-05-05T12:49:11.105Z,57.77
2023-05-05T12:50:11.307Z,57.88
2023-05-05T12:51:17.117Z,57.21
2023-05-05T12:52:11.096Z,57.00